createdAt,value
2024-02-17T00:00:03.815Z,0.082
2024-02-17T00:05:03.453Z,0.055
2024-02-17T00:10:03.018Z,0.014
2024-02-17T00:15:03.121Z,0
2024-02-17T00:20:03.285Z,0.001
2024-02-17T00:25:02.876Z,0
2024-02-17T00:30:02.940Z,0
2024-02-17T00:35:03.025Z,0
2024-02-17T00:40:01.420Z,0
2024-02-17T00:45:01.464Z,0.022
2024-02-17T00:50:01.503Z,0.004
2024-02-17T00:55:01.147Z,0.006
2024-02-17T01:00:01.388Z,0.012
2024-02-17T01:05:01.412Z,0.047
2024-02-17T01:10:01.158Z,0.022
2024-02-17T01:15:02.136Z,0.07100000000000001
2024-02-17T01:20:01.282Z,0.07200000000000001
2024-02-17T01:25:01.191Z,0.065
2024-02-17T01:30:01.259Z,0.008
2024-02-17T01:35:01.430Z,0.031
2024-02-17T01:40:01.168Z,0.01
2024-02-17T01:45:01.201Z,0
2024-02-17T01:50:01.271Z,0
2024-02-17T01:55:01.211Z,0
2024-02-17T02:00:01.284Z,0
2024-02-17T02:05:01.776Z,0
2024-02-17T02:10:01.591Z,0
2024-02-17T02:15:01.330Z,0
2024-02-17T02:20:01.560Z,0
2024-02-17T02:25:01.428Z,0.157
2024-02-17T02:30:01.410Z,0.437
2024-02-17T02:35:01.655Z,0.521
2024-02-17T02:40:01.440Z,0.20700000000000002
2024-02-17T02:45:01.243Z,0.037
2024-02-17T02:50:01.569Z,0
2024-02-17T02:55:01.286Z,0
2024-02-17T03:00:01.271Z,0
2024-02-17T03:05:01.503Z,0.026000000000000002
2024-02-17T03:10:01.443Z,0.002
2024-02-17T03:15:01.314Z,0.017
2024-02-17T03:20:01.332Z,0
2024-02-17T03:25:01.344Z,0
2024-02-17T03:30:01.322Z,0
2024-02-17T03:35:01.560Z,0
2024-02-17T03:40:01.411Z,0.013000000000000001
2024-02-17T03:45:01.372Z,0.108
2024-02-17T03:50:01.377Z,0.07
2024-02-17T03:55:01.362Z,0.04
2024-02-17T04:00:01.363Z,0.046
2024-02-17T04:05:01.518Z,0.077
2024-02-17T04:10:02.017Z,0.081
2024-02-17T04:15:01.367Z,0
2024-02-17T04:20:01.536Z,0
2024-02-17T04:25:01.390Z,0
2024-02-17T04:30:01.430Z,0.001
2024-02-17T04:35:01.700Z,0.009000000000000001
2024-02-17T04:40:01.502Z,0.013000000000000001
2024-02-17T04:45:01.542Z,0.022
2024-02-17T04:50:01.499Z,0.003
2024-02-17T04:55:01.518Z,0.001
2024-02-17T05:00:01.558Z,0
2024-02-17T05:05:01.534Z,0.011
2024-02-17T05:10:01.769Z,0.07200000000000001
2024-02-17T05:15:01.573Z,0.088
2024-02-17T05:20:01.441Z,0.046
2024-02-17T05:25:01.444Z,0.041
2024-02-17T05:30:01.432Z,0.01
2024-02-17T05:35:01.830Z,0.005
2024-02-17T05:40:02.057Z,0
2024-02-17T05:45:01.387Z,0
2024-02-17T05:50:01.498Z,0
2024-02-17T05:55:01.609Z,0
2024-02-17T06:00:01.475Z,0
2024-02-17T06:05:01.973Z,0
2024-02-17T06:10:01.470Z,0.033
2024-02-17T06:15:01.565Z,0.089
2024-02-17T06:20:01.521Z,0.105
2024-02-17T06:25:01.453Z,0.081
2024-02-17T06:30:01.498Z,0.09
2024-02-17T06:35:01.670Z,0.08600000000000001
2024-02-17T06:40:01.631Z,0.012
2024-02-17T06:45:01.526Z,0
2024-02-17T06:50:01.566Z,0
2024-02-17T06:55:01.493Z,0
2024-02-17T07:00:01.578Z,0.074
2024-02-17T07:05:01.812Z,0.11
2024-02-17T07:10:01.607Z,53.367000000000004
2024-02-17T07:15:01.637Z,80.069
2024-02-17T07:20:01.750Z,73.685
2024-02-17T07:25:01.782Z,86.74
2024-02-17T07:30:01.609Z,90.288
2024-02-17T07:35:01.878Z,83.487
2024-02-17T07:40:01.700Z,169.762
2024-02-17T07:45:01.771Z,133.091
2024-02-17T07:50:01.745Z,160.56
2024-02-17T07:55:01.550Z,187.554
2024-02-17T08:00:01.588Z,231.80100000000002
2024-02-17T08:05:01.795Z,249.56900000000002
2024-02-17T08:10:01.549Z,311.99
2024-02-17T08:15:01.817Z,375.488
2024-02-17T08:20:04.167Z,282.248
2024-02-17T08:25:01.565Z,255.464
2024-02-17T08:30:01.623Z,306.716
2024-02-17T08:35:02.008Z,399.355
2024-02-17T08:40:01.624Z,508.211
2024-02-17T08:45:01.606Z,612.364
2024-02-17T08:50:01.687Z,742.86
2024-02-17T08:55:01.567Z,779.945
2024-02-17T09:00:01.572Z,707.313
2024-02-17T09:05:01.918Z,725.227
2024-02-17T09:10:01.686Z,779.6800000000001
2024-02-17T09:15:01.632Z,786.7
2024-02-17T09:20:01.723Z,981.78
2024-02-17T09:25:02.312Z,1255.23
2024-02-17T09:30:01.632Z,1388.4370000000001
2024-02-17T09:35:02.018Z,3056.982
2024-02-17T09:40:01.705Z,3313.454
2024-02-17T09:45:01.681Z,3206.598
2024-02-17T09:50:02.114Z,5806.258
2024-02-17T09:55:01.687Z,5179.615
2024-02-17T10:00:01.737Z,4475.511
2024-02-17T10:05:01.993Z,5008.139
2024-02-17T10:10:01.872Z,4340.397
2024-02-17T10:15:02.124Z,4552.153
2024-02-17T10:20:01.806Z,6130.8330000000005
2024-02-17T10:25:15.068Z,3777.827
2024-02-17T10:30:01.657Z,5149.0070000000005
2024-02-17T10:35:01.797Z,4838.278
2024-02-17T10:40:01.905Z,3384.686
2024-02-17T10:45:02.019Z,5386.508
2024-02-17T10:50:01.817Z,3934.4880000000003
2024-02-17T10:55:01.759Z,7048.695
2024-02-17T11:00:01.834Z,6975.885
2024-02-17T11:05:01.846Z,6911.015
2024-02-17T11:10:01.961Z,6917.934
2024-02-17T11:15:01.838Z,6937.751
2024-02-17T11:20:01.977Z,5964.41
2024-02-17T11:25:01.922Z,7158.2970000000005
2024-02-17T11:30:01.912Z,7361.207
2024-02-17T11:35:02.142Z,7247.728
2024-02-17T11:40:02.388Z,7188.724
2024-02-17T11:45:01.753Z,6945.675
2024-02-17T11:50:01.902Z,7144.245
2024-02-17T11:55:01.873Z,7095.150000000001
2024-02-17T12:00:01.773Z,6086.03
2024-02-17T12:05:01.922Z,6026.969
2024-02-17T12:10:01.839Z,7010.956
2024-02-17T12:15:03.207Z,7007.122
2024-02-17T12:20:01.951Z,6968.523
2024-02-17T12:25:01.849Z,6716.3640000000005
2024-02-17T12:30:01.906Z,6795.287
2024-02-17T12:35:01.904Z,6814.7970000000005
2024-02-17T12:40:01.946Z,6753.4130000000005
2024-02-17T12:45:01.953Z,6712.45
2024-02-17T12:50:01.990Z,6672.827
2024-02-17T12:55:01.924Z,6564.872
2024-02-17T13:00:02.081Z,6509.906
2024-02-17T13:05:02.207Z,6456.822
2024-02-17T13:10:02.075Z,6398.521
2024-02-17T13:15:01.979Z,6313.669
2024-02-17T13:20:02.042Z,6108.159000000001
2024-02-17T13:25:01.961Z,5822.665
2024-02-17T13:30:01.812Z,5567.023
2024-02-17T13:35:02.208Z,5301.416
2024-02-17T13:40:01.923Z,5061.968
2024-02-17T13:45:01.806Z,4764.242
2024-02-17T13:50:01.994Z,4379.139
2024-02-17T13:55:01.920Z,4127.928
2024-02-17T14:00:01.920Z,3939.585
2024-02-17T14:05:01.986Z,3701.6730000000002
2024-02-17T14:10:01.951Z,3354.708
2024-02-17T14:15:01.855Z,3155.265
2024-02-17T14:20:02.090Z,2870.155
2024-02-17T14:25:02.038Z,2640.0280000000002
2024-02-17T14:30:01.947Z,2356.763
2024-02-17T14:35:02.119Z,2250.747
2024-02-17T14:40:02.300Z,1970.788
2024-02-17T14:45:02.129Z,1836.4170000000001
2024-02-17T14:50:02.274Z,1546.117
2024-02-17T14:55:01.963Z,1195.087
2024-02-17T15:00:01.905Z,688.903
2024-02-17T15:05:02.099Z,482.447
2024-02-17T15:10:02.016Z,355.714
2024-02-17T15:15:01.916Z,254.943
2024-02-17T15:20:02.009Z,203.955
2024-02-17T15:25:01.968Z,196.434
2024-02-17T15:30:01.933Z,177.673
2024-02-17T15:35:02.188Z,177.229
2024-02-17T15:40:02.306Z,177.573
2024-02-17T15:45:01.999Z,151.379
2024-02-17T15:50:02.090Z,123.75500000000001
2024-02-17T15:55:02.026Z,85.10300000000001
2024-02-17T16:00:01.960Z,85.743
2024-02-17T16:05:02.084Z,77.366
2024-02-17T16:10:02.038Z,76.668
2024-02-17T16:15:03.793Z,83.255
2024-02-17T16:20:02.144Z,2.02
2024-02-17T16:25:02.086Z,0.17400000000000002
2024-02-17T16:30:02.024Z,0.035
2024-02-17T16:35:02.232Z,0
2024-02-17T16:40:02.282Z,0.009000000000000001
2024-02-17T16:45:02.185Z,0.029
2024-02-17T16:50:02.133Z,0.077
2024-02-17T16:55:02.186Z,0.073
2024-02-17T17:00:02.123Z,0.10400000000000001
2024-02-17T17:05:02.584Z,0.108
2024-02-17T17:10:02.243Z,0.126
2024-02-17T17:15:02.156Z,0.162
2024-02-17T17:20:03.265Z,0.164
2024-02-17T17:25:02.066Z,0.093
2024-02-17T17:30:01.984Z,0
2024-02-17T17:35:02.189Z,0
2024-02-17T17:40:02.200Z,0
2024-02-17T17:45:02.083Z,0
2024-02-17T17:50:02.068Z,0.062
2024-02-17T17:55:02.143Z,0.12
2024-02-17T18:00:02.097Z,0.15
2024-02-17T18:05:02.372Z,0.177
2024-02-17T18:10:02.115Z,0.171
2024-02-17T18:15:02.114Z,0.14400000000000002
2024-02-17T18:20:02.116Z,0.03
2024-02-17T18:25:02.211Z,0.006
2024-02-17T18:30:02.045Z,0.001
2024-02-17T18:35:02.315Z,0.003
2024-02-17T18:40:02.427Z,0.022
2024-02-17T18:45:02.137Z,0.05
2024-02-17T18:50:02.368Z,0.001
2024-02-17T18:55:02.352Z,0
2024-02-17T19:00:02.246Z,0.058
2024-02-17T19:05:02.304Z,0.14400000000000002
2024-02-17T19:10:02.447Z,0.12
2024-02-17T19:15:02.189Z,0.126
2024-02-17T19:20:02.193Z,0.121
2024-02-17T19:25:02.273Z,0.111
2024-02-17T19:30:02.209Z,0.003
2024-02-17T19:35:02.267Z,0.003
2024-02-17T19:40:02.197Z,0.009000000000000001
2024-02-17T19:45:02.942Z,0.037
2024-02-17T19:50:02.231Z,0.016
2024-02-17T19:55:02.263Z,0.047
2024-02-17T20:00:02.207Z,0.096
2024-02-17T20:05:02.346Z,0.07200000000000001
2024-02-17T20:10:02.299Z,0.016
2024-02-17T20:15:02.308Z,0.006
2024-02-17T20:20:02.505Z,0.011
2024-02-17T20:25:02.240Z,0.012
2024-02-17T20:30:02.204Z,0.028
2024-02-17T20:35:02.460Z,0.159
2024-02-17T20:40:02.336Z,0.14100000000000001
2024-02-17T20:45:02.454Z,0.109
2024-02-17T20:50:02.379Z,0.063
2024-02-17T20:55:02.438Z,0.011
2024-02-17T21:00:02.312Z,0.016
2024-02-17T21:05:02.531Z,0.009000000000000001
2024-02-17T21:10:02.550Z,0.01
2024-02-17T21:15:02.370Z,0.025
2024-02-17T21:20:03.002Z,0.048
2024-02-17T21:25:02.425Z,0.023
2024-02-17T21:30:02.259Z,0.031
2024-02-17T21:35:02.557Z,0.022
2024-02-17T21:40:02.323Z,0.027
2024-02-17T21:45:02.305Z,0.021
2024-02-17T21:50:02.285Z,0.022
2024-02-17T21:55:02.332Z,0.084
2024-02-17T22:00:02.387Z,0.108
2024-02-17T22:05:02.474Z,0.161
2024-02-17T22:10:02.420Z,0.153
2024-02-17T22:15:02.259Z,0.139
2024-02-17T22:20:02.365Z,0.008
2024-02-17T22:25:02.428Z,0.008
2024-02-17T22:30:02.309Z,0.027
2024-02-17T22:35:02.518Z,0.027
2024-02-17T22:40:02.441Z,0.003
2024-02-17T22:45:02.318Z,0.001
2024-02-17T22:50:02.421Z,0.002
2024-02-17T22:55:02.740Z,0.001
2024-02-17T23:00:02.446Z,0.002
2024-02-17T23:05:02.960Z,0
2024-02-17T23:10:02.676Z,0.02
2024-02-17T23:15:02.506Z,0.013000000000000001
2024-02-17T23:20:02.691Z,0.006
2024-02-17T23:25:02.476Z,0.034
2024-02-17T23:30:02.477Z,0.048
2024-02-17T23:35:02.505Z,0.001
2024-02-17T23:40:02.391Z,0
2024-02-17T23:45:02.449Z,0.10200000000000001
2024-02-17T23:50:02.437Z,0.17
2024-02-17T23:55:02.401Z,0.15
